Time;durP1;ratioP1;P1;durP2;ratioP2;P2;SDS_P1;SDS_P2;PMS_P1;PMS_P2;Temp;Humidity;BMP_temperature;BMP_pressure;BME280_temperature;BME280_humidity;BME280_pressure;Samples;Min_cycle;Max_cycle;Signal;HPM_P1;HPM_P2
2022/05/11 00:01:10;;;;;;;11.63;10.63;;;;;;;;;;4962062;28;20137;-94
2022/05/11 00:03:38;;;;;;;11.90;10.80;;;;;;;;;;4963200;28;20061;-94
2022/05/11 00:06:05;;;;;;;10.63;9.73;;;;;;;;;;4963673;28;20143;-94
2022/05/11 00:08:33;;;;;;;12.13;10.93;;;;;;;;;;4965264;28;20046;-94
2022/05/11 00:11:01;;;;;;;11.93;10.82;;;;;;;;;;4963453;28;20149;-94
2022/05/11 00:13:28;;;;;;;12.43;10.55;;;;;;;;;;4961173;28;20046;-94
2022/05/11 00:15:56;;;;;;;11.48;10.48;;;;;;;;;;4963613;28;20078;-94
2022/05/11 00:18:23;;;;;;;13.38;10.55;;;;;;;;;;4963542;28;20051;-94
2022/05/11 00:20:50;;;;;;;13.25;10.90;;;;;;;;;;4962331;28;20077;-94
2022/05/11 00:23:17;;;;;;;11.90;10.85;;;;;;;;;;4967943;28;20046;-94
2022/05/11 00:25:45;;;;;;;11.70;10.60;;;;;;;;;;4964054;28;20073;-93
2022/05/11 00:28:12;;;;;;;11.18;10.05;;;;;;;;;;4964221;28;20051;-94
2022/05/11 00:30:39;;;;;;;11.00;10.10;;;;;;;;;;4966530;28;20142;-94
2022/05/11 00:33:07;;;;;;;11.70;10.57;;;;;;;;;;4967569;28;20107;-94
2022/05/11 00:35:35;;;;;;;15.77;10.68;;;;;;;;;;4965596;28;20514;-93
2022/05/11 00:38:05;;;;;;;10.15;9.25;;;;;;;;;;4962688;28;20069;-94
2022/05/11 00:40:33;;;;;;;9.93;9.02;;;;;;;;;;4962184;28;20109;-94
2022/05/11 00:43:00;;;;;;;11.25;10.15;;;;;;;;;;4964389;28;20054;-95
2022/05/11 00:45:27;;;;;;;10.52;9.57;;;;;;;;;;4963566;28;20046;-94
2022/05/11 00:49:33;;;;;;;10.38;9.30;;;;;;;;;;4966390;28;20062;-94
2022/05/11 00:50:54;;;;;;;12.75;10.50;;;;;;;;;;4982613;28;20074;-94
2022/05/11 00:53:23;;;;;;;11.75;10.70;;;;;;;;;;4968238;28;20495;-94
2022/05/11 00:55:51;;;;;;;10.68;9.68;;;;;;;;;;4965519;28;20122;-94
2022/05/11 00:58:34;;;;;;;12.88;10.48;;;;;;;;;;4966841;28;20078;-95
2022/05/11 01:01:02;;;;;;;11.75;10.65;;;;;;;;;;4968339;28;20051;-95
2022/05/11 01:03:40;;;;;;;11.15;10.10;;;;;;;;;;4967615;28;20050;-94
2022/05/11 01:06:08;;;;;;;12.02;10.80;;;;;;;;;;4969984;28;20058;-94
2022/05/11 01:08:36;;;;;;;11.95;10.85;;;;;;;;;;4967335;28;20042;-94
2022/05/11 01:11:04;;;;;;;12.00;10.90;;;;;;;;;;4965481;28;20086;-95
2022/05/11 01:13:33;;;;;;;12.35;11.10;;;;;;;;;;4967470;28;20070;-93
2022/05/11 01:16:01;;;;;;;11.57;10.48;;;;;;;;;;4968423;28;20063;-94
2022/05/11 01:18:30;;;;;;;12.70;11.30;;;;;;;;;;4968165;28;20058;-92
2022/05/11 01:20:57;;;;;;;12.50;11.30;;;;;;;;;;4968718;28;20054;-93
2022/05/11 01:23:33;;;;;;;12.57;11.38;;;;;;;;;;4966332;28;20062;-95
2022/05/11 01:26:01;;;;;;;12.13;10.93;;;;;;;;;;4967818;28;20054;-94
2022/05/11 01:28:28;;;;;;;10.98;9.98;;;;;;;;;;4967161;28;20054;-94
2022/05/11 01:31:07;;;;;;;12.75;11.63;;;;;;;;;;4969317;28;20051;-94
2022/05/11 01:33:37;;;;;;;12.68;11.40;;;;;;;;;;4970706;28;20050;-94
2022/05/11 01:36:24;;;;;;;13.18;11.48;;;;;;;;;;4969209;28;20069;-94
2022/05/11 01:38:53;;;;;;;12.27;11.20;;;;;;;;;;4973120;28;20081;-95
2022/05/11 01:41:25;;;;;;;13.60;11.60;;;;;;;;;;4973928;28;20054;-95
2022/05/11 01:43:54;;;;;;;13.43;12.13;;;;;;;;;;4971089;28;20055;-94
2022/05/11 01:46:22;;;;;;;13.68;11.70;;;;;;;;;;4970860;28;20488;-94
2022/05/11 01:48:50;;;;;;;16.92;11.93;;;;;;;;;;4969199;28;20070;-94
2022/05/11 01:51:20;;;;;;;21.00;12.85;;;;;;;;;;4971380;28;20065;-95
2022/05/11 01:53:48;;;;;;;12.63;11.27;;;;;;;;;;4988884;28;20055;-94
2022/05/11 01:56:19;;;;;;;14.57;12.32;;;;;;;;;;4956855;28;20053;-95
2022/05/11 01:58:46;;;;;;;18.35;11.88;;;;;;;;;;4970678;28;20051;-95
2022/05/11 02:01:15;;;;;;;13.70;12.30;;;;;;;;;;4969311;28;20054;-96
2022/05/11 02:03:43;;;;;;;13.93;12.48;;;;;;;;;;4971380;28;20109;-95
2022/05/11 02:09:00;;;;;;;13.85;12.45;;;;;;;;;;4988295;28;20058;-94
2022/05/11 02:11:28;;;;;;;13.85;12.43;;;;;;;;;;4982575;28;20045;-93
2022/05/11 02:13:59;;;;;;;13.75;12.45;;;;;;;;;;4974656;28;20050;-95
2022/05/11 02:16:28;;;;;;;12.90;11.68;;;;;;;;;;4971831;28;20062;-94
2022/05/11 02:18:56;;;;;;;14.30;12.90;;;;;;;;;;4970034;28;20130;-94
2022/05/11 02:21:24;;;;;;;15.00;13.50;;;;;;;;;;4969418;28;20051;-95
2022/05/11 02:23:52;;;;;;;14.57;13.20;;;;;;;;;;4970358;28;20138;-94
2022/05/11 02:26:20;;;;;;;15.82;13.15;;;;;;;;;;4967079;28;20179;-95
2022/05/11 02:28:52;;;;;;;15.05;13.65;;;;;;;;;;4966448;28;20069;-95
2022/05/11 02:31:20;;;;;;;14.05;12.65;;;;;;;;;;4951688;28;20051;-93
2022/05/11 02:33:48;;;;;;;14.70;13.27;;;;;;;;;;4969062;28;20661;-94
2022/05/11 02:36:15;;;;;;;14.40;13.10;;;;;;;;;;4969351;28;20082;-93
2022/05/11 02:38:43;;;;;;;16.20;14.60;;;;;;;;;;4965735;28;20097;-94
2022/05/11 02:41:11;;;;;;;15.98;14.27;;;;;;;;;;4970096;28;20050;-94
2022/05/11 02:43:38;;;;;;;17.65;15.27;;;;;;;;;;4970311;28;20070;-94
2022/05/11 02:46:06;;;;;;;15.43;13.82;;;;;;;;;;4969769;28;20510;-95
2022/05/11 02:48:33;;;;;;;19.52;14.40;;;;;;;;;;4968756;28;20047;-94
2022/05/11 02:51:02;;;;;;;16.25;14.52;;;;;;;;;;4964618;28;20062;-94
2022/05/11 02:53:31;;;;;;;16.13;14.43;;;;;;;;;;4964016;28;20496;-95
2022/05/11 02:55:59;;;;;;;16.05;14.38;;;;;;;;;;4964393;28;20054;-95
2022/05/11 02:58:28;;;;;;;16.73;14.05;;;;;;;;;;4966604;28;20137;-94
2022/05/11 03:01:00;;;;;;;17.40;14.05;;;;;;;;;;4964867;28;20054;-95
2022/05/11 03:03:33;;;;;;;31.90;15.90;;;;;;;;;;4969321;28;20078;-94
2022/05/11 03:06:04;;;;;;;15.88;14.10;;;;;;;;;;4973280;28;20059;-94
2022/05/11 03:08:31;;;;;;;22.15;14.05;;;;;;;;;;4968678;28;20046;-94
2022/05/11 03:10:59;;;;;;;17.80;15.65;;;;;;;;;;4972079;28;20055;-94
2022/05/11 03:13:26;;;;;;;20.95;15.15;;;;;;;;;;4972267;28;20086;-95
2022/05/11 03:15:54;;;;;;;18.60;13.85;;;;;;;;;;4967328;28;20050;-93
2022/05/11 03:18:21;;;;;;;17.05;14.13;;;;;;;;;;4965786;28;20113;-95
2022/05/11 03:20:50;;;;;;;15.90;13.45;;;;;;;;;;4970316;28;20061;-94
2022/05/11 03:23:17;;;;;;;14.77;13.38;;;;;;;;;;4970006;28;20418;-94
2022/05/11 03:25:45;;;;;;;16.35;13.60;;;;;;;;;;4968381;28;20046;-95
2022/05/11 03:28:12;;;;;;;16.70;14.43;;;;;;;;;;4974655;28;20054;-95
2022/05/11 03:30:41;;;;;;;15.20;13.50;;;;;;;;;;4989735;28;20061;-95
2022/05/11 03:35:57;;;;;;;22.95;13.77;;;;;;;;;;4989249;28;20053;-94
2022/05/11 03:38:24;;;;;;;15.07;13.48;;;;;;;;;;4972645;28;20066;-94
2022/05/11 03:40:52;;;;;;;14.73;13.23;;;;;;;;;;4973432;28;20065;-95
2022/05/11 03:43:19;;;;;;;16.23;14.52;;;;;;;;;;4974118;28;20087;-94
2022/05/11 03:45:47;;;;;;;14.27;12.88;;;;;;;;;;4972746;28;20055;-94
2022/05/11 03:48:17;;;;;;;15.13;13.63;;;;;;;;;;4972809;28;20557;-94
2022/05/11 03:50:44;;;;;;;18.38;14.40;;;;;;;;;;4968899;28;20066;-93
2022/05/11 03:53:12;;;;;;;14.50;13.05;;;;;;;;;;4967448;28;20086;-94
2022/05/11 03:55:39;;;;;;;14.95;13.55;;;;;;;;;;4971169;28;20051;-94
2022/05/11 03:58:07;;;;;;;12.70;11.50;;;;;;;;;;4971350;28;20082;-95
2022/05/11 04:00:34;;;;;;;14.15;12.75;;;;;;;;;;4970734;28;20083;-95
2022/05/11 04:03:04;;;;;;;14.27;12.93;;;;;;;;;;4956299;29;20059;-94
2022/05/11 04:05:32;;;;;;;13.43;12.23;;;;;;;;;;4969083;28;20055;-95
2022/05/11 04:07:59;;;;;;;13.35;12.05;;;;;;;;;;4974339;28;20062;-91
2022/05/11 04:10:28;;;;;;;13.63;12.23;;;;;;;;;;4969085;28;20061;-94
2022/05/11 04:12:56;;;;;;;13.95;12.38;;;;;;;;;;4972831;28;20063;-95
2022/05/11 04:15:29;;;;;;;13.40;11.95;;;;;;;;;;4971460;28;20058;-95
2022/05/11 04:17:58;;;;;;;11.75;10.68;;;;;;;;;;4970570;28;20047;-94
2022/05/11 04:20:26;;;;;;;16.17;14.38;;;;;;;;;;4969120;28;20063;-94
2022/05/11 04:22:56;;;;;;;17.35;15.38;;;;;;;;;;4965061;28;20052;-94
2022/05/11 04:25:24;;;;;;;18.83;16.83;;;;;;;;;;4965915;28;20090;-95
2022/05/11 04:27:51;;;;;;;24.48;15.30;;;;;;;;;;4980953;28;20043;-94
2022/05/11 04:30:22;;;;;;;28.23;16.88;;;;;;;;;;4973420;28;20047;-95
2022/05/11 04:32:49;;;;;;;31.50;14.70;;;;;;;;;;4969417;28;20047;-94
2022/05/11 04:35:17;;;;;;;31.48;14.65;;;;;;;;;;4968529;28;20055;-92
2022/05/11 04:37:47;;;;;;;18.65;12.70;;;;;;;;;;4967429;28;20055;-94
2022/05/11 04:40:15;;;;;;;18.75;12.70;;;;;;;;;;4968301;28;20047;-94
2022/05/11 04:42:44;;;;;;;16.30;12.65;;;;;;;;;;4969037;28;20074;-95
2022/05/11 04:45:22;;;;;;;14.10;11.93;;;;;;;;;;4970325;28;20047;-94
2022/05/11 04:47:50;;;;;;;12.35;11.18;;;;;;;;;;4952547;29;20051;-95
2022/05/11 04:50:18;;;;;;;12.35;10.85;;;;;;;;;;4968102;28;20067;-93
2022/05/11 04:52:46;;;;;;;13.95;11.07;;;;;;;;;;4964771;28;20051;-94
2022/05/11 04:55:13;;;;;;;11.95;10.85;;;;;;;;;;4967149;28;20051;-94
2022/05/11 04:57:41;;;;;;;12.30;10.77;;;;;;;;;;4963110;28;20058;-94
2022/05/11 05:00:10;;;;;;;12.93;11.63;;;;;;;;;;4965351;28;20070;-94
2022/05/11 05:02:38;;;;;;;12.13;10.95;;;;;;;;;;4965270;28;20051;-91
2022/05/11 05:05:05;;;;;;;13.80;11.07;;;;;;;;;;4963742;28;20138;-94
2022/05/11 05:07:34;;;;;;;13.70;11.32;;;;;;;;;;4965902;29;20059;-94
2022/05/11 05:10:03;;;;;;;12.20;10.93;;;;;;;;;;4967134;28;20051;-94
2022/05/11 05:12:31;;;;;;;12.13;10.93;;;;;;;;;;4965526;28;20051;-95
2022/05/11 05:14:59;;;;;;;11.00;10.07;;;;;;;;;;4964171;28;20112;-95
2022/05/11 05:17:26;;;;;;;11.55;10.45;;;;;;;;;;4966789;28;20083;-94
2022/05/11 05:19:54;;;;;;;16.60;10.18;;;;;;;;;;4962915;28;20101;-94
2022/05/11 05:22:21;;;;;;;14.52;9.90;;;;;;;;;;4962534;28;20059;-95
2022/05/11 05:24:49;;;;;;;15.68;10.65;;;;;;;;;;4963358;29;20051;-95
2022/05/11 05:27:17;;;;;;;12.38;9.60;;;;;;;;;;4962056;28;20420;-94
2022/05/11 05:32:40;;;;;;;20.52;9.85;;;;;;;;;;4965553;28;20047;-95
2022/05/11 05:35:09;;;;;;;11.25;9.23;;;;;;;;;;4965950;28;20051;-94
2022/05/11 05:37:38;;;;;;;16.48;9.63;;;;;;;;;;4966669;29;20054;-95
2022/05/11 05:40:10;;;;;;;10.13;9.20;;;;;;;;;;4963678;28;20059;-94
2022/05/11 05:42:38;;;;;;;12.65;8.98;;;;;;;;;;4952401;28;20051;-95
2022/05/11 05:45:09;;;;;;;11.98;8.23;;;;;;;;;;4954690;28;20051;-96
2022/05/11 05:47:42;;;;;;;12.00;8.52;;;;;;;;;;4949632;29;20051;-93
2022/05/11 05:50:10;;;;;;;21.25;7.93;;;;;;;;;;4962389;28;20054;-96
2022/05/11 05:52:38;;;;;;;17.00;7.60;;;;;;;;;;4962207;28;20134;-95
2022/05/11 05:55:07;;;;;;;7.95;6.40;;;;;;;;;;4954001;28;20055;-95
2022/05/11 05:57:36;;;;;;;8.93;6.35;;;;;;;;;;4950138;28;20051;-96
2022/05/11 06:00:05;;;;;;;16.40;6.70;;;;;;;;;;4948484;29;20106;-95
2022/05/11 06:02:34;;;;;;;10.93;6.40;;;;;;;;;;4949992;29;20067;-96
2022/05/11 06:05:01;;;;;;;13.93;6.53;;;;;;;;;;4949194;29;20047;-96
2022/05/11 06:07:30;;;;;;;24.73;6.63;;;;;;;;;;4946686;29;20061;-93
2022/05/11 06:09:57;;;;;;;21.55;7.03;;;;;;;;;;4946041;29;20070;-93
2022/05/11 06:12:25;;;;;;;22.90;6.80;;;;;;;;;;4940690;29;20052;-93
2022/05/11 06:14:52;;;;;;;32.78;9.10;;;;;;;;;;4943125;29;20099;-93
2022/05/11 06:17:23;;;;;;;26.65;8.52;;;;;;;;;;4945182;29;20420;-96
2022/05/11 06:19:52;;;;;;;55.67;10.30;;;;;;;;;;4949182;29;20062;-96
2022/05/11 06:22:21;;;;;;;28.00;8.68;;;;;;;;;;4952753;29;20147;-96
2022/05/11 06:24:54;;;;;;;9.95;4.68;;;;;;;;;;4951001;29;20048;-96
2022/05/11 06:27:26;;;;;;;4.25;3.78;;;;;;;;;;4947331;29;20066;-96
2022/05/11 06:29:56;;;;;;;4.30;3.80;;;;;;;;;;4945625;29;20099;-95
2022/05/11 06:32:23;;;;;;;3.85;3.55;;;;;;;;;;4942647;29;20052;-96
2022/05/11 06:34:51;;;;;;;3.97;3.47;;;;;;;;;;4944013;29;20146;-96
2022/05/11 06:37:19;;;;;;;4.35;3.28;;;;;;;;;;4939514;29;20055;-96
2022/05/11 06:39:47;;;;;;;3.88;3.47;;;;;;;;;;4940046;29;20056;-95
2022/05/11 06:42:14;;;;;;;3.60;3.30;;;;;;;;;;4939987;29;20074;-96
2022/05/11 06:44:42;;;;;;;3.55;3.35;;;;;;;;;;4958428;28;20035;-96
2022/05/11 06:47:09;;;;;;;3.85;3.65;;;;;;;;;;4941580;28;20043;-96
2022/05/11 06:49:37;;;;;;;3.17;3.05;;;;;;;;;;4939242;28;20469;-94
2022/05/11 06:52:04;;;;;;;3.45;2.80;;;;;;;;;;4958613;28;20078;-93
2022/05/11 07:00:03;;;;;;;3.92;3.30;;;;;;;;;;4979377;28;20433;-89
2022/05/11 07:02:34;;;;;;;5.45;2.88;;;;;;;;;;4959354;28;20053;-95
2022/05/11 07:05:09;;;;;;;5.45;2.88;;;;;;;;;;4946531;28;20062;-92
2022/05/11 07:07:37;;;;;;;4.45;2.83;;;;;;;;;;4959344;28;20078;-91
2022/05/11 07:10:04;;;;;;;5.82;3.10;;;;;;;;;;4958721;28;20200;-93
2022/05/11 07:12:35;;;;;;;4.72;3.17;;;;;;;;;;4958983;28;20054;-93
2022/05/11 07:15:05;;;;;;;5.07;2.92;;;;;;;;;;4958348;28;20444;-92
2022/05/11 07:17:33;;;;;;;4.40;2.95;;;;;;;;;;4958010;28;20043;-91
2022/05/11 07:20:02;;;;;;;4.03;2.90;;;;;;;;;;4958752;28;20061;-93
2022/05/11 07:22:29;;;;;;;6.38;2.90;;;;;;;;;;4961466;28;20053;-91
2022/05/11 07:24:56;;;;;;;4.72;2.78;;;;;;;;;;4962060;28;20070;-91
2022/05/11 07:27:24;;;;;;;5.60;3.00;;;;;;;;;;4960907;28;20125;-86
2022/05/11 07:29:52;;;;;;;2.75;2.53;;;;;;;;;;4961696;28;20050;-87
2022/05/11 07:32:19;;;;;;;3.28;2.60;;;;;;;;;;4960224;28;20082;-86
2022/05/11 07:34:46;;;;;;;3.65;2.78;;;;;;;;;;4960526;28;20170;-90
2022/05/11 07:37:14;;;;;;;5.15;2.90;;;;;;;;;;4961072;28;20571;-88
2022/05/11 07:39:42;;;;;;;2.47;2.38;;;;;;;;;;4961247;28;20050;-88
2022/05/11 07:42:09;;;;;;;2.88;2.55;;;;;;;;;;4960973;28;20082;-91
2022/05/11 07:44:36;;;;;;;4.95;2.30;;;;;;;;;;4960866;28;20608;-91
2022/05/11 07:47:11;;;;;;;4.63;2.53;;;;;;;;;;4961709;28;20054;-89
2022/05/11 07:49:39;;;;;;;4.70;2.70;;;;;;;;;;4960954;28;20077;-92
2022/05/11 07:52:07;;;;;;;3.50;2.30;;;;;;;;;;4960977;28;20105;-90
2022/05/11 07:54:34;;;;;;;6.15;2.75;;;;;;;;;;4961122;28;20058;-91
2022/05/11 07:59:57;;;;;;;2.08;1.98;;;;;;;;;;4977583;28;20051;-92
2022/05/11 08:02:31;;;;;;;5.72;2.30;;;;;;;;;;4960930;28;20050;-90
2022/05/11 08:04:59;;;;;;;5.13;2.60;;;;;;;;;;4960224;28;20070;-87
2022/05/11 08:07:29;;;;;;;2.72;2.40;;;;;;;;;;4959594;28;20506;-92
2022/05/11 08:09:57;;;;;;;8.02;2.35;;;;;;;;;;4960071;28;20073;-91
2022/05/11 08:12:25;;;;;;;5.30;2.00;;;;;;;;;;4960130;28;20074;-88
2022/05/11 08:14:53;;;;;;;8.43;2.17;;;;;;;;;;4959498;28;20081;-92
2022/05/11 08:17:24;;;;;;;5.22;2.30;;;;;;;;;;4959982;28;20137;-90
2022/05/11 08:19:51;;;;;;;2.67;1.90;;;;;;;;;;4960454;28;20074;-92
2022/05/11 08:22:18;;;;;;;2.15;1.95;;;;;;;;;;4960334;28;20071;-92
2022/05/11 08:24:46;;;;;;;4.22;2.17;;;;;;;;;;4960061;28;20522;-87
2022/05/11 08:27:16;;;;;;;3.78;1.92;;;;;;;;;;4959917;28;20051;-86
2022/05/11 08:35:35;;;;;;;2.38;1.80;;;;;;;;;;4976431;28;20050;-92
2022/05/11 08:38:02;;;;;;;11.35;2.63;;;;;;;;;;4960082;28;20050;-93
2022/05/11 08:40:36;;;;;;;2.22;2.03;;;;;;;;;;4959187;28;20563;-90
2022/05/11 08:43:03;;;;;;;3.13;2.22;;;;;;;;;;4959765;28;20146;-89
2022/05/11 08:45:34;;;;;;;7.13;2.17;;;;;;;;;;4959443;28;20109;-90
2022/05/11 08:48:08;;;;;;;8.85;2.97;;;;;;;;;;4960282;28;20487;-90
2022/05/11 08:50:37;;;;;;;2.40;1.85;;;;;;;;;;4959771;28;20057;-91
2022/05/11 08:53:06;;;;;;;2.42;1.90;;;;;;;;;;4959331;28;20057;-89
2022/05/11 08:55:52;;;;;;;4.43;1.90;;;;;;;;;;4959034;28;20058;-93
2022/05/11 08:58:22;;;;;;;3.58;2.30;;;;;;;;;;4960105;28;20054;-91
2022/05/11 09:00:52;;;;;;;3.22;2.03;;;;;;;;;;4961856;28;20047;-90
2022/05/11 09:03:31;;;;;;;5.13;2.17;;;;;;;;;;4970059;28;20153;-88
2022/05/11 09:06:00;;;;;;;4.50;2.00;;;;;;;;;;4959123;28;20055;-88
2022/05/11 09:08:27;;;;;;;7.40;2.78;;;;;;;;;;4959346;28;20070;-87
2022/05/11 09:10:54;;;;;;;3.35;2.10;;;;;;;;;;4976226;28;20096;-86
2022/05/11 09:13:23;;;;;;;6.50;2.45;;;;;;;;;;4959081;28;20141;-90
2022/05/11 09:15:51;;;;;;;7.00;2.33;;;;;;;;;;4959290;28;20046;-89
2022/05/11 09:18:18;;;;;;;7.00;2.17;;;;;;;;;;4958975;28;20113;-85
2022/05/11 09:20:48;;;;;;;2.65;2.40;;;;;;;;;;4959663;28;20126;-92
2022/05/11 09:23:15;;;;;;;4.07;2.20;;;;;;;;;;4959839;28;20093;-90
2022/05/11 09:25:54;;;;;;;8.30;2.92;;;;;;;;;;4958855;28;20047;-88
2022/05/11 09:28:29;;;;;;;3.65;2.08;;;;;;;;;;4958085;28;20137;-90
2022/05/11 09:31:05;;;;;;;3.63;2.33;;;;;;;;;;4958543;28;20130;-92
2022/05/11 09:33:34;;;;;;;6.28;2.30;;;;;;;;;;4959022;28;20142;-94
2022/05/11 09:36:03;;;;;;;5.90;2.63;;;;;;;;;;4958722;28;20089;-88
2022/05/11 09:38:50;;;;;;;4.00;2.50;;;;;;;;;;4961161;28;20506;-88
2022/05/11 09:41:20;;;;;;;4.43;2.60;;;;;;;;;;4958737;28;20495;-88
2022/05/11 09:43:53;;;;;;;2.55;2.25;;;;;;;;;;4959468;28;20137;-94
2022/05/11 09:46:29;;;;;;;4.75;2.70;;;;;;;;;;4958215;28;20051;-91
2022/05/11 09:49:24;;;;;;;10.27;2.60;;;;;;;;;;4959048;28;20467;-94
2022/05/11 09:51:54;;;;;;;5.88;2.58;;;;;;;;;;4958444;28;20078;-88
2022/05/11 09:54:28;;;;;;;8.93;2.95;;;;;;;;;;4960596;28;20133;-92
2022/05/11 09:57:13;;;;;;;2.42;2.00;;;;;;;;;;4965437;28;20590;-91
2022/05/11 09:59:40;;;;;;;7.85;2.35;;;;;;;;;;4985535;28;20084;-93
2022/05/11 10:02:20;;;;;;;4.47;2.13;;;;;;;;;;4969205;28;20085;-90
2022/05/11 10:04:55;;;;;;;8.00;2.22;;;;;;;;;;4968544;28;20125;-92
2022/05/11 10:07:24;;;;;;;3.90;2.15;;;;;;;;;;4959346;28;20051;-89
2022/05/11 10:09:53;;;;;;;7.18;2.40;;;;;;;;;;4959670;28;20162;-94
2022/05/11 10:12:24;;;;;;;5.97;2.33;;;;;;;;;;4958639;28;20053;-94
2022/05/11 10:23:53;;;;;;;8.52;1.75;;;;;;;;;;4975732;28;20129;-95
2022/05/11 10:26:27;;;;;;;3.50;1.73;;;;;;;;;;4958433;28;20411;-91
2022/05/11 10:28:57;;;;;;;3.55;2.20;;;;;;;;;;4958016;28;20137;-90
2022/05/11 10:31:33;;;;;;;10.10;1.98;;;;;;;;;;4958362;28;20050;-89
2022/05/11 10:34:11;;;;;;;12.93;2.33;;;;;;;;;;4958967;28;20059;-92
2022/05/11 10:36:38;;;;;;;6.03;2.35;;;;;;;;;;4959108;28;20407;-86
2022/05/11 10:39:24;;;;;;;15.73;2.50;;;;;;;;;;4958205;28;20093;-91
2022/05/11 10:41:51;;;;;;;4.00;1.83;;;;;;;;;;4959206;28;20137;-96
2022/05/11 10:44:25;;;;;;;5.40;1.58;;;;;;;;;;4959426;28;20051;-91
2022/05/11 10:46:53;;;;;;;2.03;1.70;;;;;;;;;;4975747;28;20071;-90
2022/05/11 10:49:20;;;;;;;8.55;2.20;;;;;;;;;;4958277;28;20129;-88
2022/05/11 10:52:06;;;;;;;4.30;1.80;;;;;;;;;;4958487;28;20094;-94
2022/05/11 10:54:33;;;;;;;9.52;1.90;;;;;;;;;;4958319;28;20494;-87
2022/05/11 10:57:05;;;;;;;11.75;2.40;;;;;;;;;;4976939;28;20435;-86
2022/05/11 10:59:49;;;;;;;7.88;1.65;;;;;;;;;;4961569;28;20093;-91
2022/05/11 11:02:35;;;;;;;2.55;1.60;;;;;;;;;;4961843;28;20142;-90
2022/05/11 11:05:09;;;;;;;8.93;2.30;;;;;;;;;;4961349;28;20101;-94
2022/05/11 11:07:36;;;;;;;;;;;;;;;;;;4961414;28;20543;-86
2022/05/11 11:10:07;;;;;;;7.97;1.70;;;;;;;;;;4962267;28;19953;-87
2022/05/11 11:12:44;;;;;;;14.02;2.20;;;;;;;;;;4961519;28;20051;-94
2022/05/11 11:15:13;;;;;;;3.53;1.70;;;;;;;;;;4961194;28;20061;-89
2022/05/11 11:17:42;;;;;;;7.55;1.73;;;;;;;;;;4962931;28;20462;-89
2022/05/11 11:20:11;;;;;;;7.95;1.60;;;;;;;;;;4970750;28;20046;-92
2022/05/11 11:22:57;;;;;;;19.33;2.63;;;;;;;;;;4962010;28;20085;-92
2022/05/11 11:25:24;;;;;;;5.82;1.65;;;;;;;;;;4962371;28;20065;-89
2022/05/11 11:28:13;;;;;;;7.03;1.40;;;;;;;;;;4961429;28;20141;-92
2022/05/11 11:30:42;;;;;;;2.42;1.67;;;;;;;;;;4962069;28;20491;-93
2022/05/11 11:33:12;;;;;;;5.97;1.60;;;;;;;;;;4961455;28;20051;-91
2022/05/11 11:35:41;;;;;;;4.85;1.80;;;;;;;;;;4961462;28;20137;-93
2022/05/11 11:38:09;;;;;;;6.32;1.85;;;;;;;;;;4961469;28;20075;-94
2022/05/11 11:40:40;;;;;;;1.65;1.42;;;;;;;;;;4962300;28;20061;-88
2022/05/11 11:43:40;;;;;;;28.55;3.80;;;;;;;;;;4961587;28;20065;-92
2022/05/11 11:46:08;;;;;;;16.17;2.40;;;;;;;;;;4960691;28;20054;-91
2022/05/11 11:48:41;;;;;;;3.80;1.45;;;;;;;;;;4960520;28;20149;-92
2022/05/11 11:51:11;;;;;;;5.97;1.25;;;;;;;;;;4961302;28;20129;-90
2022/05/11 11:53:42;;;;;;;6.10;1.70;;;;;;;;;;4962192;28;20050;-90
2022/05/11 11:56:28;;;;;;;23.27;2.42;;;;;;;;;;4962471;28;20090;-87
2022/05/11 11:59:09;;;;;;;4.85;1.60;;;;;;;;;;4961849;28;20146;-90
2022/05/11 12:01:43;;;;;;;5.60;1.65;;;;;;;;;;4962541;28;20097;-91
2022/05/11 12:04:13;;;;;;;2.47;1.60;;;;;;;;;;4962215;28;20074;-94
2022/05/11 12:15:27;;;;;;;27.92;2.92;;;;;;;;;;4977103;28;20054;-89
2022/05/11 12:17:54;;;;;;;11.60;2.25;;;;;;;;;;4960991;28;20093;-92
2022/05/11 12:20:21;;;;;;;14.82;2.15;;;;;;;;;;4960249;28;20392;-92
2022/05/11 12:22:53;;;;;;;4.30;1.73;;;;;;;;;;4961476;28;20463;-88
2022/05/11 12:25:47;;;;;;;3.50;1.50;;;;;;;;;;4960795;28;20554;-86
2022/05/11 12:28:23;;;;;;;10.48;1.98;;;;;;;;;;4957929;28;20046;-87
2022/05/11 12:30:50;;;;;;;8.07;2.03;;;;;;;;;;4960082;28;20085;-90
2022/05/11 12:33:23;;;;;;;5.82;1.83;;;;;;;;;;4961130;28;20134;-92
2022/05/11 12:35:50;;;;;;;11.43;2.75;;;;;;;;;;4960222;28;20431;-93
2022/05/11 12:38:29;;;;;;;8.45;2.15;;;;;;;;;;4960505;28;20479;-87
2022/05/11 12:40:57;;;;;;;8.52;1.90;;;;;;;;;;4960602;28;20107;-89
2022/05/11 12:43:26;;;;;;;4.93;1.45;;;;;;;;;;4960269;28;20054;-93
2022/05/11 12:45:55;;;;;;;12.15;2.10;;;;;;;;;;4959993;28;20499;-90
2022/05/11 12:48:25;;;;;;;6.05;2.00;;;;;;;;;;4977500;28;20170;-93
2022/05/11 12:50:57;;;;;;;6.28;1.73;;;;;;;;;;4963713;28;20078;-91
2022/05/11 12:53:27;;;;;;;3.08;1.60;;;;;;;;;;4960544;28;20086;-92
2022/05/11 12:56:06;;;;;;;17.95;2.80;;;;;;;;;;4960054;28;20050;-89
2022/05/11 12:58:35;;;;;;;9.73;2.03;;;;;;;;;;4959531;28;20141;-87
2022/05/11 13:01:04;;;;;;;14.15;2.72;;;;;;;;;;4959337;28;20050;-91
2022/05/11 13:03:36;;;;;;;7.60;2.00;;;;;;;;;;4960544;28;20058;-88
2022/05/11 13:06:22;;;;;;;6.90;1.88;;;;;;;;;;4960305;28;20058;-87
2022/05/11 13:08:51;;;;;;;7.72;2.20;;;;;;;;;;4959537;28;20047;-83
2022/05/11 13:11:20;;;;;;;2.83;1.73;;;;;;;;;;4959150;28;20133;-92
2022/05/11 13:13:51;;;;;;;6.20;2.20;;;;;;;;;;4959211;28;20123;-92
2022/05/11 13:16:24;;;;;;;1.67;1.55;;;;;;;;;;4959615;28;20082;-91
2022/05/11 13:19:02;;;;;;;10.07;1.90;;;;;;;;;;4958331;28;20046;-90
2022/05/11 13:21:35;;;;;;;3.78;1.42;;;;;;;;;;4959518;28;20372;-87
2022/05/11 13:24:04;;;;;;;9.85;1.67;;;;;;;;;;4959322;28;20046;-88
2022/05/11 13:26:35;;;;;;;6.35;1.77;;;;;;;;;;4958954;28;20050;-90
2022/05/11 13:29:16;;;;;;;5.10;1.70;;;;;;;;;;4959699;28;20058;-92
2022/05/11 13:31:44;;;;;;;5.88;2.20;;;;;;;;;;4958769;28;20051;-90
2022/05/11 13:34:31;;;;;;;3.17;1.70;;;;;;;;;;4967821;28;20046;-90
2022/05/11 13:36:59;;;;;;;6.65;2.08;;;;;;;;;;4960896;28;20412;-93
2022/05/11 13:39:27;;;;;;;2.38;1.50;;;;;;;;;;4959558;28;20545;-93
2022/05/11 13:41:55;;;;;;;1.50;1.40;;;;;;;;;;4959150;28;20133;-88
2022/05/11 13:44:28;;;;;;;6.57;1.70;;;;;;;;;;4958365;28;20049;-90
2022/05/11 13:49:42;;;;;;;2.83;1.95;;;;;;;;;;4975080;28;20050;-90
2022/05/11 13:52:30;;;;;;;2.58;1.70;;;;;;;;;;4958887;28;20133;-89
2022/05/11 13:54:58;;;;;;;5.70;1.85;;;;;;;;;;4958593;28;20054;-92
2022/05/11 13:57:27;;;;;;;6.65;1.70;;;;;;;;;;4958622;28;20085;-93
2022/05/11 13:59:56;;;;;;;3.40;1.92;;;;;;;;;;4959375;28;20047;-94
2022/05/11 14:02:23;;;;;;;5.10;1.65;;;;;;;;;;4959130;28;20487;-90
2022/05/11 14:04:51;;;;;;;5.93;1.85;;;;;;;;;;4958775;28;20337;-94
2022/05/11 14:07:18;;;;;;;4.07;1.58;;;;;;;;;;4958182;28;20137;-92
2022/05/11 14:09:45;;;;;;;7.47;1.60;;;;;;;;;;4958747;28;20376;-88
2022/05/11 14:12:12;;;;;;;5.40;2.15;;;;;;;;;;4958381;28;20053;-88
2022/05/11 14:14:40;;;;;;;11.40;2.30;;;;;;;;;;4958052;28;20078;-89
2022/05/11 14:17:22;;;;;;;4.15;1.88;;;;;;;;;;4959722;28;20530;-95
2022/05/11 14:19:51;;;;;;;5.45;1.80;;;;;;;;;;4960194;28;20070;-93
2022/05/11 14:22:18;;;;;;;8.23;2.03;;;;;;;;;;4958355;28;20078;-88
2022/05/11 14:24:45;;;;;;;5.13;1.70;;;;;;;;;;4958205;28;20552;-91
2022/05/11 14:27:12;;;;;;;7.70;1.70;;;;;;;;;;4957945;28;20057;-88
2022/05/11 14:29:39;;;;;;;3.60;1.70;;;;;;;;;;4958759;28;20114;-93
2022/05/11 14:32:08;;;;;;;5.70;1.98;;;;;;;;;;4957709;28;20131;-90
2022/05/11 14:34:35;;;;;;;7.40;1.77;;;;;;;;;;4959002;28;20142;-94
2022/05/11 14:37:03;;;;;;;7.95;2.03;;;;;;;;;;4958220;28;20134;-92
2022/05/11 14:39:30;;;;;;;12.00;2.17;;;;;;;;;;4958190;28;20050;-94
2022/05/11 14:41:59;;;;;;;11.18;2.05;;;;;;;;;;4958889;28;20078;-92
2022/05/11 14:44:26;;;;;;;7.35;2.10;;;;;;;;;;4958481;28;20061;-91
2022/05/11 14:47:13;;;;;;;5.28;1.73;;;;;;;;;;4961100;28;20047;-93
2022/05/11 14:49:41;;;;;;;3.10;1.60;;;;;;;;;;4957841;28;20146;-94
2022/05/11 14:52:09;;;;;;;19.05;2.63;;;;;;;;;;4958374;28;20142;-89
2022/05/11 14:54:36;;;;;;;12.30;2.70;;;;;;;;;;4958482;28;20070;-93
2022/05/11 15:02:36;;;;;;;31.63;3.78;;;;;;;;;;4974274;28;20043;-90
2022/05/11 15:05:09;;;;;;;10.40;2.00;;;;;;;;;;4958120;28;20086;-92
2022/05/11 15:07:36;;;;;;;6.28;2.22;;;;;;;;;;4957048;28;20051;-88
2022/05/11 15:10:04;;;;;;;6.00;2.17;;;;;;;;;;4958105;28;20070;-91
2022/05/11 15:15:17;;;;;;;7.38;1.98;;;;;;;;;;4974281;28;20506;-89
2022/05/11 15:17:44;;;;;;;16.83;2.40;;;;;;;;;;4957494;28;20134;-92
2022/05/11 15:20:17;;;;;;;3.80;1.80;;;;;;;;;;4958121;28;20133;-92
2022/05/11 15:22:44;;;;;;;5.13;1.90;;;;;;;;;;4957862;28;20047;-88
2022/05/11 15:25:13;;;;;;;14.55;2.30;;;;;;;;;;4957885;28;20047;-94
2022/05/11 15:27:42;;;;;;;9.95;1.90;;;;;;;;;;4961761;28;20121;-91
2022/05/11 15:30:10;;;;;;;5.65;2.40;;;;;;;;;;4958018;28;20058;-88
2022/05/11 15:32:39;;;;;;;2.35;1.45;;;;;;;;;;4958042;28;20110;-93
2022/05/11 15:35:07;;;;;;;3.47;1.80;;;;;;;;;;4958226;28;20070;-91
2022/05/11 15:37:34;;;;;;;7.75;1.80;;;;;;;;;;4957884;28;20130;-93
2022/05/11 15:40:01;;;;;;;2.38;1.80;;;;;;;;;;4961926;28;20491;-93
2022/05/11 15:42:29;;;;;;;5.47;1.88;;;;;;;;;;4960717;28;20051;-88